Cisco Butte, California Weather observations

Data are for observation ending at time listed.
 Day   Time    Ave.   Ave.  Ave.  Vector   Max.   Stn.    Total    Solar   Ave.   Snow 
  of    of     Air    Rel.  Wind   Wind    Wind   Baro.  Precip.   Rad.    Soil   Depth
Year   Day     Temp.  Hum.  Speed  Dir.    Gust   Pres.                    Temp.       
2015   (PST)    F      %     mph   deg.    mph     mb.     in.     W/m2     F      in. 
---------------------------------------------------------------------------------------  
  90    6:50   42.4    61    7.4   269     15.9   823.0    0.00      77    999.0  126.5
  90    7:00   41.9    60    8.8   281     18.6   823.0    0.00      97    999.0   15.6
  90    7:10   42.9    50    2.7   294      9.6   823.0    0.00     120    999.0   48.3
  90    7:20   44.1    41    3.6   156     10.4   823.0    0.00     143    999.0  159.5
  90    7:30   44.7    38    4.5   182     14.9   823.0    0.00     165    999.0  159.5
  90    7:40   45.0    36    3.5   202     10.7   823.0    0.00     190    999.0  159.5
  90    7:50   45.2    35    5.6   230     14.7   823.0    0.00     210    999.0  159.5
  90    8:00   45.6    35    5.3   241     13.6   823.0    0.00     230    999.0  159.5
  90    8:10   46.0    33    8.1   270     17.2   823.0    0.00     256    999.0  159.5
  90    8:20   45.5    34    7.6   272     16.7   823.0    0.00     278    999.0  159.5
  90    8:30   46.2    35    6.5   248     15.3   823.0    0.00     300    999.0  159.5
  90    8:40   46.1    33    8.5   260     19.5   823.0    0.00     323    999.0  159.5
  90    8:50   45.5    33    9.4   263     16.4   823.0    0.00     346    999.0  159.5
  90    9:00   45.8    34    8.1   278     14.8   824.0    0.00     367    999.0  159.5
  90    9:10   46.3    37   10.3   272     19.6   824.0    0.00     389    999.0  159.5
  90    9:20   45.5    37   12.2   265     19.1   824.0    0.00     409    999.0  159.5
  90    9:30   45.5    37   13.0   259     19.1   824.0    0.00     429    999.0  159.5
  90    9:40   46.1    37    9.2   257     16.9   824.0    0.00     448    999.0  159.5
  90    9:50   46.5    37   10.7   262     19.4   824.0    0.00     467    999.0  159.5
  90   10:00   46.0    37   12.8   269     18.9   824.0    0.00     481    999.0  159.5
  90   10:10   45.6    37   15.5   267     21.7   824.0    0.00     495    999.0  159.5
  90   10:20   46.0    39   11.1   259     18.5   824.0    0.00     508    999.0  159.5
  90   10:30   47.1    38    9.8   260     17.6   824.0    0.00     523    999.0  159.5
  90   10:40   47.0    37   10.0   246     20.8   824.0    0.00     533    999.0  159.5
  90   10:50   47.3    37   11.3   263     18.2   824.0    0.00     544    999.0  159.5
  90   11:00   48.1    37   11.8   269     19.1   824.0    0.00     552    999.0  159.5
  90   11:10   47.1    36   14.4   271     21.4   824.0    0.00     557    999.0  159.5
  90   11:20   47.7    34   12.9   260     23.2   824.0    0.00     567    999.0  159.5
  90   11:30   48.4    32   14.1   258     23.8   824.0    0.00     572    999.0  159.5
  90   11:40   47.7    35   12.6   252     22.2   824.0    0.00     578    999.0  159.5
  90   11:50   48.3    30   14.4   260     27.0   824.0    0.00     581    999.0  159.5
  90   12:00   48.1    31   15.0   264     23.9   824.0    0.00     584    999.0  159.5
  90   12:10   48.1    31   16.0   270     24.0   824.0    0.00     587    999.0  159.5
  90   12:20   47.2    33   16.6   267     26.2   824.0    0.00     582    999.0  159.5
  90   12:30   47.4    33   15.9   264     25.0   824.0    0.00     583    999.0  159.5
  90   12:40   47.6    35   16.0   262     24.5   824.0    0.00     579    999.0  159.5
  90   12:50   47.8    37   15.4   273     26.2   824.0    0.00     575    999.0  159.5
  90   13:00   47.4    39   15.0   272     23.5   824.0    0.00     571    999.0  159.5
  90   13:10   47.4    36   17.4   274     28.9   824.0    0.00     566    999.0  159.5
  90   13:20   46.7    39   17.7   276     27.3   824.0    0.00     558    999.0  159.5
  90   13:30   46.6    40   15.5   275     24.0   824.0    0.00     548    999.0  159.5
  90   13:40   46.6    43   16.5   278     28.5   824.0    0.00     537    999.0  159.5
  90   13:50   46.7    48   15.3   271     22.6   824.0    0.00     527    999.0  159.5
  90   14:00   45.9    55   17.4   280     25.0   824.0    0.00     484    999.0  159.2
  90   14:10   44.1    60   18.4   282     26.3   824.0    0.00     223    999.0  143.2
  90   14:20   43.8    62   17.3   279     25.4   824.0    0.00     283    999.0  159.2
  90   14:30   42.7    62   16.3   281     24.0   824.0    0.00     126    999.0  127.4
  90   14:40   42.2    60   15.6   275     23.0   824.0    0.00     165    999.0  159.3
  90   14:50   42.1    61   14.2   276     23.2   824.0    0.00     118    999.0  159.3
  90   15:00   42.0    63   13.8   283     24.0   824.0    0.00     113    999.0  159.4
  90   15:10   41.4    66   16.5   282     22.6   824.0    0.00     110    999.0  159.4
  90   15:20   41.3    64   15.1   282     25.8   824.0    0.00     132    999.0  159.4
  90   15:30   41.9    59   16.3   279     23.5   824.0    0.00     144    999.0   94.7
  90   15:40   41.8    64   16.4   282     22.6   824.0    0.00     265    999.0  112.2
  90   15:50   42.7    58   16.8   283     24.0   824.0    0.00     362    999.0   94.5
  90   16:00   42.7    54   17.0   282     22.5   824.0    0.00     210    999.0  128.0
  90   16:10   42.0    55   14.1   283     24.0   824.0    0.00     258    999.0  159.3
  90   16:20   42.4    53   14.9   276     21.8   824.0    0.00     168    999.0  159.4
  90   16:30   41.2    56   13.2   279     19.0   824.0    0.00     162    999.0  159.3
  90   16:40   41.1    60   13.6   280     21.7   824.0    0.00     100    999.0   47.7
  90   16:50   40.1    64   12.3   277     17.8   824.0    0.00      76    999.0  143.3
  90   17:00   39.6    65   11.4   280     18.0   824.0    0.00      73    999.0  159.4
  90   17:10   39.9    64   11.3   280     16.9   824.0    0.00      71    999.0  159.4
  90   17:20   40.0    63   10.6   277     17.6   824.0    0.00      89    999.0  159.3
  90   17:30   39.9    61   12.5   282     17.8   824.0    0.00      65    999.0  110.6
  90   17:40   39.6    60   12.8   283     19.3   824.0    0.00      64    999.0   15.8
  90   17:50   39.8    58   11.4   283     16.8   824.0    0.00      59    999.0   -0.1
  90   18:00   39.1    58   11.4   282     16.7   824.0    0.00      39    999.0   -0.1
  90   18:10   38.6    58    9.9   283     15.7   824.0    0.00      25    999.0   15.8
  90   18:20   37.7    58    8.5   282     12.3   824.0    0.00      15    999.0   80.3
  90   18:30   36.8    55    9.3   280     13.8   824.0    0.00       5    999.0  159.1
  90   18:40   35.6    52    8.3   280     12.1   824.0    0.00       1    999.0  159.5
  90   18:50   34.8    55    4.8   273      8.8   824.0    0.00       0    999.0  159.5
  90   19:00   33.6    57    5.1   275      8.0   824.0    0.00       0    999.0  159.4
  90   19:10   33.4    54    7.2   279      8.8   824.0    0.00       0    999.0  159.5
  90   19:20   33.2    52    6.8   279      8.8   824.0    0.00       0    999.0  159.5
  90   19:30   33.2    50    5.7   279      8.8   824.0    0.00       0    999.0  159.5
  90   19:40   32.9    48    3.9   267      6.6   825.0    0.00       0    999.0  159.5
  90   19:50   32.2    49    3.1   269      4.5   825.0    0.00       0    999.0  159.5
  90   20:00   31.9    49    2.2   270      4.4   825.0    0.00       0    999.0  159.5
  90   20:10   31.5    48    1.3   269      2.7   825.0    0.00       0    999.0  159.5
  90   20:20   31.2    47    0.2   262      1.6   825.0    0.00       0    999.0  159.5
  90   20:30   31.5    46    1.3    84      3.9   825.0    0.00       0    999.0  159.5
  90   20:40   32.4    50    2.4    86      3.7   825.0    0.00       0    999.0  159.4
  90   20:50   32.3    49    0.6    70      4.0   825.0    0.00       0    999.0  159.4
  90   21:00   32.4    49    2.9    94      4.8   825.0    0.00       0    999.0  159.4
  90   21:10   31.9    50    1.6    89      4.1   825.0    0.00       0    999.0  159.5
  90   21:20   31.4    56    1.1    84      3.5   825.0    0.00       0    999.0  127.5
  90   21:30   31.6    54    2.4   100      6.1   825.0    0.00       0    999.0  159.5
  90   21:40   29.9    62    5.9   108      9.6   825.0    0.00       0    999.0  159.5
  90   21:50   29.5    63    6.0   110      7.9   825.0    0.00       0    999.0  159.5
  90   22:00   29.8    62    3.9   112      6.9   825.0    0.00       0    999.0  159.5
  90   22:10   30.0    62    4.5   108      6.6   825.0    0.00       0    999.0  159.5
  90   22:20   29.5    62    4.2   115      6.2   825.0    0.00       0    999.0  159.5
  90   22:30   29.4    63    4.3   113      6.1   825.0    0.00       0    999.0  159.5
  90   22:40   29.1    66    3.5   113      5.6   825.0    0.00       0    999.0  159.5
  90   22:50   28.8    67    4.9   120     10.7   825.0    0.00       0    999.0  159.4
  90   23:00   28.6    69    7.6   115     12.6   825.0    0.00       0    999.0  154.8
  90   23:10   29.0    67    7.7   116      9.8   825.0    0.00       0    999.0  111.0
  90   23:20   29.2    66    8.8   115     12.2   825.0    0.00       0    999.0  158.4
  90   23:30   28.8    68    8.0   111     10.7   825.0    0.00       0    999.0    0.1
  90   23:40   28.8    68    9.4   109     12.2   825.0    0.00       0    999.0   32.7
  90   23:50   29.0    67    9.7   107     12.9   825.0    0.00       0    999.0  159.4
  91    0:00   28.7    67    9.5   106     12.6   825.0    0.00       0    999.0  159.3
  91    0:10   28.6    66   10.0   109     13.4   825.0    0.00       0    999.0  159.3
  91    0:20   28.8    64    9.8   103     13.0   825.0    0.00       0    999.0  159.3
  91    0:30   29.1    62   10.4   107     14.4   825.0    0.00       0    999.0  127.4
  91    0:40   29.0    62   10.8   112     14.5   825.0    0.00       0    999.0   94.7
  91    0:50   29.4    60   10.5   107     14.8   825.0    0.00       0    999.0    0.1
  91    1:00   29.5    60   10.7   105     14.1   824.0    0.00       0    999.0    0.0
  91    1:10   28.9    62    9.9   103     13.4   824.0    0.00       0    999.0    0.1
  91    1:20   28.9    61    9.8   104     12.5   824.0    0.00       0    999.0    0.1
  91    1:30   29.3    59   10.3   104     14.0   824.0    0.00       0    999.0    0.0
  91    1:40   29.5    58    9.8   101     13.2   824.0    0.00       0    999.0  128.3
  91    1:50   29.8    58    9.8    98     14.5   824.0    0.00       0    999.0  159.4
  91    2:00   30.0    56   10.4    94     13.2   824.0    0.00       0    999.0  159.5
  91    2:10   29.9    57   12.0    93     17.0   824.0    0.00       0    999.0  159.5
  91    2:20   29.6    58   12.1    90     15.5   824.0    0.00       0    999.0  159.5
  91    2:30   29.4    60   12.1    92     16.4   824.0    0.00       0    999.0  159.5
  91    2:40   29.2    61   11.9    90     15.2   824.0    0.00       0    999.0  159.1
  91    2:50   29.0    62   11.8    91     14.8   824.0    0.00       0    999.0   78.6
  91    3:00   28.8    64   11.3    98     14.4   824.0    0.00       0    999.0    0.0
  91    3:10   28.4    65    9.7    98     13.2   824.0    0.00       0    999.0   31.8
  91    3:20   28.0    66   10.1   101     14.5   823.0    0.00       0    999.0   80.4
  91    3:30   28.1    66   10.6   101     14.3   823.0    0.00       0    999.0   78.8
  91    3:40   28.1    65   10.8    94     15.1   823.0    0.00       0    999.0   31.9
  91    3:50   27.9    66   10.2   102     14.0   823.0    0.00       0    999.0   80.4
  91    4:00   27.7    66    9.8   106     15.4   823.0    0.00       0    999.0   95.5
  91    4:10   27.6    67    8.6    98     12.3   823.0    0.00       0    999.0   15.2
  91    4:20   27.7    67    8.3   101     10.8   823.0    0.00       0    999.0    0.1
  91    4:30   27.2    68    9.2   102     11.4   823.0    0.00       0    999.0    0.1
  91    4:40   27.2    68   10.1   101     13.4   823.0    0.00       0    999.0    0.2
  91    4:50   27.4    68    9.6   100     13.1   823.0    0.00       0    999.0    0.1
  91    5:00   27.0    69    8.8   100     12.1   823.0    0.00       0    999.0   15.9
  91    5:10   27.0    69    9.3   104     12.9   823.0    0.00       0    999.0    0.1
  91    5:20   27.2    68   10.0    97     13.5   823.0    0.00       0    999.0    0.2
  91    5:30   27.0    69    9.0   102     11.8   823.0    0.00       0    999.0    0.1
  91    5:40   27.0    69    9.1   102     13.0   823.0    0.00       0    999.0    0.0
  91    5:50   27.0    69    9.8   102     13.7   823.0    0.00       2    999.0    0.1
  91    6:00   26.7    70    9.7   101     12.1   823.0    0.00       7    999.0    0.1
  91    6:10   26.9    70    9.3    98     12.2   823.0    0.00      22    999.0   80.5
  91    6:20   27.2    69   10.2    99     13.1   823.0    0.00      36    999.0   31.0
  91    6:30   27.6    68   11.2   100     16.1   823.0    0.00      50    999.0    0.0
  91    6:40   28.0    68   10.7   106     14.4   823.0    0.00      76    999.0   -0.1

Return to Cisco Butte graphs page.


Western Regional Climate Center,wrcc@dri.edu